Time;durP1;ratioP1;P1;durP2;ratioP2;P2;SDS_P1;SDS_P2;PMS_P1;PMS_P2;Temp;Humidity;BMP_temperature;BMP_pressure;BME280_temperature;BME280_humidity;BME280_pressure;Samples;Min_cycle;Max_cycle;Signal;HPM_P1;HPM_P2
2022/06/18 00:01:35;;;;;;;2.10;1.02;;;20.30;99.90;;;;;;5030520;28;20043;-47
2022/06/18 00:04:08;;;;;;;2.42;0.90;;;20.30;99.90;;;;;;5042612;28;20514;-47
2022/06/18 00:06:46;;;;;;;4.20;1.20;;;20.30;99.90;;;;;;5042128;28;20056;-46
2022/06/18 00:09:12;;;;;;;3.10;1.33;;;20.30;99.90;;;;;;5044218;28;20049;-44
2022/06/18 00:14:22;;;;;;;4.18;1.13;;;20.20;99.90;;;;;;5050382;28;20045;-47
2022/06/18 00:16:48;;;;;;;2.90;1.00;;;20.20;99.90;;;;;;5054918;28;20045;-46
2022/06/18 00:19:14;;;;;;;3.25;1.10;;;20.10;99.90;;;;;;5052787;28;20092;-46
2022/06/18 00:21:40;;;;;;;3.30;0.93;;;20.10;99.90;;;;;;5046418;28;20482;-46
2022/06/18 00:24:14;;;;;;;4.35;1.08;;;20.10;99.90;;;;;;5049640;28;20050;-47
2022/06/18 00:26:40;;;;;;;2.17;1.10;;;20.10;99.90;;;;;;5041110;28;20548;-46
2022/06/18 00:29:10;;;;;;;2.50;1.25;;;20.10;99.90;;;;;;5054126;28;20029;-46
2022/06/18 00:31:36;;;;;;;3.25;1.20;;;20.10;99.90;;;;;;5049597;28;20064;-47
2022/06/18 00:34:02;;;;;;;1.67;0.95;;;20.00;99.90;;;;;;5034423;28;20454;-46
2022/06/18 00:36:27;;;;;;;4.68;1.30;;;20.00;99.90;;;;;;5047468;28;20029;-45
2022/06/18 00:38:54;;;;;;;3.53;1.10;;;20.00;99.90;;;;;;5046805;28;20045;-44
2022/06/18 00:41:22;;;;;;;2.88;1.00;;;20.00;99.90;;;;;;5043171;28;20114;-44
2022/06/18 00:43:58;;;;;;;4.65;1.20;;;20.00;99.90;;;;;;5042054;28;20493;-45
2022/06/18 00:46:45;;;;;;;3.60;1.20;;;20.00;99.90;;;;;;5051788;28;20117;-44
2022/06/18 00:49:25;;;;;;;4.70;1.17;;;20.00;99.90;;;;;;5045205;28;20190;-44
2022/06/18 00:52:01;;;;;;;2.05;0.90;;;19.90;99.90;;;;;;5045485;28;20082;-44
2022/06/18 00:54:57;;;;;;;3.50;1.40;;;19.90;99.90;;;;;;5045499;28;20124;-45
2022/06/18 00:57:40;;;;;;;1.85;1.20;;;19.90;99.90;;;;;;5048758;28;20045;-44
2022/06/18 01:00:06;;;;;;;;;;;19.80;99.90;;;;;;5043506;28;20456;-45
2022/06/18 01:02:40;;;;;;;3.22;1.17;;;19.70;99.90;;;;;;5043459;28;20015;-48
2022/06/18 01:05:20;;;;;;;1.75;1.30;;;19.80;99.90;;;;;;5044214;28;20041;-46
2022/06/18 01:07:51;;;;;;;3.08;0.93;;;19.80;99.90;;;;;;5048407;28;20085;-45
2022/06/18 01:10:28;;;;;;;1.98;1.20;;;19.80;99.90;;;;;;5049248;28;20395;-44
2022/06/18 01:12:54;;;;;;;4.30;1.63;;;19.80;99.90;;;;;;5035310;28;20092;-45
2022/06/18 01:15:21;;;;;;;3.67;1.60;;;19.70;99.90;;;;;;5043783;28;20037;-46
2022/06/18 01:17:51;;;;;;;1.92;1.17;;;19.70;99.90;;;;;;5048170;28;20116;-46
2022/06/18 01:20:17;;;;;;;3.05;1.30;;;19.70;99.90;;;;;;5045090;28;20160;-47
2022/06/18 01:23:31;;;;;;;3.15;1.23;;;19.70;99.90;;;;;;5046053;28;20120;-45
2022/06/18 01:25:56;;;;;;;2.58;1.35;;;19.70;99.90;;;;;;5042233;28;20084;-44
2022/06/18 01:28:22;;;;;;;4.35;1.27;;;19.60;99.90;;;;;;5049179;28;20466;-49
2022/06/18 01:30:48;;;;;;;3.95;1.67;;;19.70;99.90;;;;;;5042421;28;20410;-47
2022/06/18 01:33:14;;;;;;;3.00;1.42;;;19.70;99.90;;;;;;5045087;28;20032;-45
2022/06/18 01:35:44;;;;;;;3.28;1.35;;;19.60;99.90;;;;;;5044712;28;20575;-45
2022/06/18 01:38:11;;;;;;;3.22;1.23;;;19.60;99.90;;;;;;5045217;28;20148;-48
2022/06/18 01:41:53;;;;;;;2.65;1.35;;;19.60;99.90;;;;;;5038824;28;20044;-46
2022/06/18 01:44:08;;;;;;;3.17;1.60;;;19.60;99.90;;;;;;5042628;28;20102;-46
2022/06/18 01:46:35;;;;;;;4.35;1.60;;;19.60;99.90;;;;;;5046336;28;20404;-45
2022/06/18 01:49:05;;;;;;;3.45;1.70;;;19.60;99.90;;;;;;5045648;28;20047;-45
2022/06/18 01:51:39;;;;;;;2.50;1.52;;;19.50;99.90;;;;;;5027816;28;20040;-45
2022/06/18 01:54:11;;;;;;;2.85;1.95;;;19.60;99.90;;;;;;5046880;28;20401;-46
2022/06/18 01:56:42;;;;;;;2.92;1.85;;;19.50;99.90;;;;;;5047657;28;20045;-48
2022/06/18 01:59:10;;;;;;;4.22;1.92;;;19.50;99.90;;;;;;5046333;28;20049;-45
2022/06/18 02:01:40;;;;;;;5.05;2.25;;;19.50;99.90;;;;;;5041351;28;20041;-45
2022/06/18 02:04:06;;;;;;;3.33;1.60;;;19.50;99.90;;;;;;5043253;28;20084;-47
2022/06/18 02:06:35;;;;;;;3.25;1.65;;;19.40;99.90;;;;;;5026736;28;20538;-45
2022/06/18 02:09:05;;;;;;;2.38;1.75;;;19.50;99.90;;;;;;5039253;28;20040;-46
2022/06/18 02:11:31;;;;;;;3.25;1.88;;;19.40;99.90;;;;;;5022625;28;20044;-46
2022/06/18 02:14:07;;;;;;;2.38;1.83;;;19.40;99.90;;;;;;5030215;28;20037;-44
2022/06/18 02:16:41;;;;;;;2.95;1.80;;;19.40;99.90;;;;;;5049841;28;20055;-45
2022/06/18 02:19:08;;;;;;;4.22;2.00;;;19.40;99.90;;;;;;5044127;28;20036;-46
2022/06/18 02:21:42;;;;;;;4.03;1.85;;;19.40;99.90;;;;;;5044502;28;20124;-46
2022/06/18 02:24:08;;;;;;;5.03;2.28;;;19.30;99.90;;;;;;5034126;28;20037;-45
2022/06/18 02:26:36;;;;;;;3.35;1.90;;;19.30;99.90;;;;;;5043373;28;20048;-44
2022/06/18 02:29:04;;;;;;;3.92;2.00;;;19.30;99.90;;;;;;5041842;28;20068;-49
2022/06/18 02:31:34;;;;;;;4.13;2.78;;;19.20;99.90;;;;;;5047068;28;20036;-45
2022/06/18 02:34:08;;;;;;;6.43;2.10;;;19.20;99.90;;;;;;5043986;28;20045;-46
2022/06/18 02:36:37;;;;;;;4.30;2.67;;;19.20;99.90;;;;;;5049457;28;20041;-44
2022/06/18 02:39:28;;;;;;;3.22;2.40;;;19.20;99.90;;;;;;5043549;28;20045;-48
2022/06/18 02:42:01;;;;;;;5.30;2.30;;;19.20;99.90;;;;;;5046276;28;20047;-46
2022/06/18 02:44:27;;;;;;;4.60;2.75;;;19.20;99.90;;;;;;5048886;28;20045;-44
2022/06/18 02:46:54;;;;;;;4.03;2.20;;;19.10;99.90;;;;;;5039072;28;20048;-46
2022/06/18 02:49:20;;;;;;;4.65;2.53;;;19.10;99.90;;;;;;5042659;28;20048;-45
2022/06/18 02:51:46;;;;;;;4.22;2.97;;;19.10;99.90;;;;;;5039429;28;20380;-45
2022/06/18 02:54:11;;;;;;;3.45;2.88;;;19.10;99.90;;;;;;5029748;28;20037;-46
2022/06/18 02:56:37;;;;;;;4.80;3.83;;;19.10;99.90;;;;;;5047730;28;20048;-47
2022/06/18 02:59:04;;;;;;;3.97;3.22;;;19.10;99.90;;;;;;5036401;28;20262;-46
2022/06/18 03:01:32;;;;;;;4.30;3.70;;;19.10;99.90;;;;;;5046280;28;20104;-45
2022/06/18 03:03:59;;;;;;;4.97;4.10;;;19.00;99.90;;;;;;5027165;28;20491;-45
2022/06/18 03:06:27;;;;;;;4.68;4.03;;;19.10;99.90;;;;;;5045447;28;20033;-45
2022/06/18 03:08:55;;;;;;;6.90;3.90;;;19.00;99.90;;;;;;5033495;28;20037;-45
2022/06/18 03:14:16;;;;;;;7.60;4.00;;;19.00;99.90;;;;;;5046200;28;20072;-46
2022/06/18 03:16:42;;;;;;;6.75;4.07;;;19.00;99.90;;;;;;5046804;28;20042;-46
2022/06/18 03:19:11;;;;;;;4.40;4.00;;;19.00;99.90;;;;;;5031221;28;20073;-48
2022/06/18 03:21:45;;;;;;;6.63;4.38;;;18.90;99.90;;;;;;5044520;28;20076;-45
2022/06/18 03:24:12;;;;;;;6.05;4.88;;;18.90;99.90;;;;;;5047052;28;20079;-46
2022/06/18 03:26:38;;;;;;;7.68;4.97;;;18.90;99.90;;;;;;5033141;28;20035;-46
2022/06/18 03:29:05;;;;;;;6.45;4.55;;;18.90;99.90;;;;;;5046075;28;20081;-46
2022/06/18 03:31:32;;;;;;;6.80;5.05;;;18.80;99.90;;;;;;5038665;28;20540;-45
2022/06/18 03:33:58;;;;;;;8.20;4.70;;;18.90;99.90;;;;;;5041494;28;20068;-45
2022/06/18 03:36:24;;;;;;;9.25;4.95;;;18.90;99.90;;;;;;5041046;28;20040;-45
2022/06/18 03:38:50;;;;;;;8.57;5.80;;;18.80;99.90;;;;;;5018272;28;20498;-45
2022/06/18 03:41:18;;;;;;;7.40;5.20;;;18.80;99.90;;;;;;5033251;28;20072;-47
2022/06/18 03:43:44;;;;;;;11.40;5.88;;;18.80;99.90;;;;;;5046559;28;20049;-45
2022/06/18 03:46:12;;;;;;;8.50;6.00;;;18.80;99.90;;;;;;5055417;28;20064;-46
2022/06/18 03:48:57;;;;;;;8.65;5.82;;;18.80;99.90;;;;;;5048971;28;20033;-46
2022/06/18 03:51:23;;;;;;;12.82;6.07;;;18.70;99.90;;;;;;5029525;28;20449;-45
2022/06/18 03:53:49;;;;;;;8.15;5.93;;;18.70;99.90;;;;;;5051463;28;20442;-44
2022/06/18 03:56:17;;;;;;;10.48;5.68;;;18.70;99.90;;;;;;5033587;28;20481;-45
2022/06/18 03:58:44;;;;;;;12.48;7.28;;;18.70;99.90;;;;;;5049933;28;20048;-44
2022/06/18 04:01:13;;;;;;;10.85;6.90;;;18.70;99.90;;;;;;5036536;28;20041;-46
2022/06/18 04:03:38;;;;;;;8.13;5.53;;;18.70;99.90;;;;;;5046628;28;20033;-44
2022/06/18 04:06:04;;;;;;;9.38;5.82;;;18.70;99.90;;;;;;5050625;28;20037;-47
2022/06/18 04:08:30;;;;;;;10.80;6.45;;;18.70;99.90;;;;;;5041958;28;20041;-48
2022/06/18 04:10:56;;;;;;;8.80;6.05;;;18.70;99.90;;;;;;5033684;28;20033;-46
2022/06/18 04:13:22;;;;;;;10.88;5.50;;;18.60;99.90;;;;;;5041795;28;20175;-45
2022/06/18 04:15:48;;;;;;;9.40;5.63;;;18.60;99.90;;;;;;5047350;28;20478;-45
2022/06/18 04:18:16;;;;;;;11.55;6.65;;;18.60;99.90;;;;;;5045822;28;20056;-49
2022/06/18 04:20:42;;;;;;;10.05;6.13;;;18.60;99.90;;;;;;5052706;28;20095;-46
2022/06/18 04:23:10;;;;;;;8.30;5.47;;;18.60;99.90;;;;;;5034186;28;20045;-47
2022/06/18 04:25:36;;;;;;;13.88;6.78;;;18.60;99.90;;;;;;5045684;28;20048;-48
2022/06/18 04:28:02;;;;;;;9.85;6.38;;;18.60;99.90;;;;;;5044479;28;20040;-50
2022/06/18 04:30:30;;;;;;;9.65;5.97;;;18.60;99.90;;;;;;5044018;28;20236;-45
2022/06/18 04:32:58;;;;;;;12.25;6.78;;;18.70;99.90;;;;;;5043341;28;20084;-44
2022/06/18 04:35:24;;;;;;;8.00;5.38;;;18.70;99.90;;;;;;5048036;28;20048;-45
2022/06/18 04:37:50;;;;;;;8.65;4.93;;;18.70;99.90;;;;;;5057520;28;20041;-45
2022/06/18 04:40:31;;;;;;;11.32;5.97;;;18.70;99.90;;;;;;5053328;28;20099;-43
2022/06/18 04:42:59;;;;;;;9.98;5.38;;;18.70;99.90;;;;;;5044974;28;20058;-43
2022/06/18 04:45:24;;;;;;;8.38;5.05;;;18.70;99.90;;;;;;5057841;28;20048;-44
2022/06/18 04:47:50;;;;;;;12.75;5.90;;;18.80;99.90;;;;;;5030734;28;20511;-44
2022/06/18 04:50:19;;;;;;;14.00;6.95;;;18.80;99.90;;;;;;5036876;28;20107;-44
2022/06/18 04:52:45;;;;;;;12.90;6.07;;;18.80;99.90;;;;;;5044355;28;20386;-45
2022/06/18 04:55:11;;;;;;;12.18;6.25;;;18.80;99.90;;;;;;5049629;28;20048;-46
2022/06/18 04:57:37;;;;;;;12.77;5.65;;;18.80;99.90;;;;;;5045014;28;20033;-45
2022/06/18 05:00:06;;;;;;;12.02;5.45;;;18.80;99.90;;;;;;5025259;28;20084;-44
2022/06/18 05:02:34;;;;;;;12.20;7.00;;;18.90;99.90;;;;;;5053803;28;21278;-44
2022/06/18 05:05:01;;;;;;;14.63;7.65;;;18.90;99.90;;;;;;5040619;28;20033;-43
2022/06/18 05:07:27;;;;;;;14.48;8.00;;;18.90;99.90;;;;;;5040281;28;20547;-45
2022/06/18 05:09:53;;;;;;;11.88;7.10;;;18.90;99.90;;;;;;5044872;28;20033;-45
2022/06/18 05:12:18;;;;;;;10.77;5.70;;;19.00;99.90;;;;;;5033353;28;20048;-47
2022/06/18 05:14:44;;;;;;;12.57;6.32;;;19.00;99.90;;;;;;5049856;28;20689;-45
2022/06/18 05:17:15;;;;;;;13.32;6.88;;;19.00;99.90;;;;;;5051046;28;20064;-45
2022/06/18 05:19:41;;;;;;;13.10;6.65;;;19.10;99.90;;;;;;5045743;28;20514;-46
2022/06/18 05:22:08;;;;;;;13.07;5.95;;;19.20;99.90;;;;;;5043325;28;20080;-46
2022/06/18 05:24:35;;;;;;;12.45;5.70;;;19.70;99.90;;;;;;5053474;28;20051;-44
2022/06/18 05:27:01;;;;;;;9.52;5.57;;;20.30;99.90;;;;;;5029003;28;20041;-45
2022/06/18 05:29:27;;;;;;;12.43;5.43;;;21.00;99.90;;;;;;5051867;28;20112;-44
2022/06/18 05:31:53;;;;;;;7.80;4.97;;;21.20;99.90;;;;;;5041872;28;20075;-46
2022/06/18 05:34:19;;;;;;;9.80;5.35;;;21.30;99.90;;;;;;5037289;28;20076;-45
2022/06/18 05:36:45;;;;;;;12.75;6.10;;;21.30;99.90;;;;;;5044880;28;20098;-44
2022/06/18 05:39:14;;;;;;;10.25;5.63;;;21.50;99.90;;;;;;5043651;28;20072;-45
2022/06/18 05:41:41;;;;;;;13.13;5.82;;;21.70;99.90;;;;;;5041626;28;20045;-45
2022/06/18 05:44:07;;;;;;;12.85;5.70;;;21.80;99.90;;;;;;5004344;28;1108915;-46
2022/06/18 05:46:33;;;;;;;11.70;5.45;;;21.80;99.90;;;;;;5040452;28;20044;-46
2022/06/18 05:48:59;;;;;;;11.98;5.28;;;21.80;99.90;;;;;;5009472;28;20052;-45
2022/06/18 05:51:25;;;;;;;11.60;5.00;;;21.80;99.90;;;;;;5047077;28;20038;-45
2022/06/18 05:53:50;;;;;;;11.70;4.85;;;21.70;99.90;;;;;;5032090;28;20118;-45
2022/06/18 05:56:16;;;;;;;12.75;5.40;;;21.60;99.90;;;;;;5047692;28;20052;-45
2022/06/18 05:58:42;;;;;;;12.15;5.22;;;21.50;99.90;;;;;;5024881;28;20040;-46
2022/06/18 06:01:08;;;;;;;9.68;5.68;;;21.50;99.90;;;;;;5044494;28;20037;-47
2022/06/18 06:03:34;;;;;;;11.13;4.80;;;21.40;99.90;;;;;;5048664;28;20496;-46
2022/06/18 06:06:00;;;;;;;10.68;4.82;;;21.40;99.90;;;;;;5033636;28;20049;-48
2022/06/18 06:08:26;;;;;;;11.23;4.18;;;21.30;99.90;;;;;;5046491;28;20297;-46
2022/06/18 06:13:36;;;;;;;8.35;3.88;;;21.30;99.90;;;;;;5033398;28;20052;-45
2022/06/18 06:16:02;;;;;;;9.25;4.22;;;21.20;99.90;;;;;;5039492;28;20452;-46
2022/06/18 06:18:29;;;;;;;9.95;4.13;;;21.30;99.90;;;;;;5042178;28;20296;-44
2022/06/18 06:20:56;;;;;;;8.82;4.03;;;21.30;99.90;;;;;;5022319;28;20090;-44
2022/06/18 06:23:22;;;;;;;9.95;3.70;;;21.30;99.90;;;;;;5039775;28;20064;-46
2022/06/18 06:25:49;;;;;;;7.95;3.40;;;21.30;99.90;;;;;;5039718;28;20032;-46
2022/06/18 06:28:18;;;;;;;11.73;3.50;;;21.30;99.90;;;;;;5040951;28;20044;-44
2022/06/18 06:30:43;;;;;;;9.73;3.58;;;21.30;99.90;;;;;;5036656;28;20044;-46
2022/06/18 06:33:09;;;;;;;11.02;3.40;;;21.40;99.90;;;;;;5044793;28;20041;-46
2022/06/18 06:35:35;;;;;;;9.80;3.60;;;21.40;99.90;;;;;;5036730;28;20030;-44
2022/06/18 06:38:02;;;;;;;8.77;3.40;;;21.40;99.90;;;;;;5037040;28;20045;-45
2022/06/18 06:40:30;;;;;;;10.63;3.67;;;21.50;99.90;;;;;;5038611;28;20090;-44
2022/06/18 06:42:56;;;;;;;10.77;3.70;;;21.50;99.90;;;;;;5018462;28;20049;-48
2022/06/18 06:45:30;;;;;;;11.23;3.35;;;21.50;99.90;;;;;;5033915;28;20131;-44
2022/06/18 06:47:56;;;;;;;10.93;3.35;;;21.60;99.90;;;;;;5052016;28;20029;-45
2022/06/18 06:50:24;;;;;;;8.98;3.17;;;21.60;99.90;;;;;;5046381;28;20410;-45
2022/06/18 06:52:50;;;;;;;9.05;3.08;;;21.60;99.90;;;;;;5042264;28;20037;-44
2022/06/18 06:58:08;;;;;;;10.35;3.55;;;21.80;99.90;;;;;;5043074;28;20049;-43
2022/06/18 07:00:42;;;;;;;7.88;3.20;;;21.80;99.90;;;;;;5045499;28;20560;-46
2022/06/18 07:03:14;;;;;;;9.65;3.22;;;21.90;99.90;;;;;;5034936;28;20049;-43
2022/06/18 07:05:40;;;;;;;9.10;3.40;;;21.80;99.90;;;;;;5041943;28;20112;-44
2022/06/18 07:08:09;;;;;;;12.68;3.10;;;21.90;99.90;;;;;;5048950;28;20041;-43
2022/06/18 07:10:35;;;;;;;11.27;3.38;;;22.00;99.90;;;;;;5045095;28;20049;-44
2022/06/18 07:13:00;;;;;;;9.75;3.00;;;22.00;99.90;;;;;;5049657;28;20047;-45
2022/06/18 07:15:26;;;;;;;10.98;3.30;;;22.10;99.90;;;;;;5047724;28;20041;-45
2022/06/18 07:17:52;;;;;;;10.18;2.88;;;22.10;99.90;;;;;;5047732;28;20037;-44
2022/06/18 07:20:19;;;;;;;8.43;2.67;;;22.20;99.90;;;;;;5048698;28;20064;-46
2022/06/18 07:22:45;;;;;;;7.10;2.30;;;22.20;99.90;;;;;;5047387;28;20041;-43
2022/06/18 07:25:12;;;;;;;6.70;2.50;;;22.30;99.90;;;;;;5049113;28;20041;-44
2022/06/18 07:27:38;;;;;;;6.90;1.92;;;22.40;99.90;;;;;;5051387;28;20566;-43
2022/06/18 07:30:07;;;;;;;5.38;1.75;;;22.40;99.90;;;;;;5054033;28;20028;-45
2022/06/18 07:32:33;;;;;;;6.95;1.90;;;22.50;99.90;;;;;;5052981;28;20049;-44
2022/06/18 07:34:59;;;;;;;7.32;1.42;;;22.50;99.90;;;;;;5053798;28;20394;-47
2022/06/18 07:37:25;;;;;;;7.47;1.33;;;22.60;99.90;;;;;;5057223;28;20051;-44
2022/06/18 07:39:55;;;;;;;4.30;1.27;;;22.60;99.90;;;;;;5056945;28;20197;-44
2022/06/18 07:42:23;;;;;;;6.43;1.52;;;22.70;99.90;;;;;;5050796;28;20040;-43
2022/06/18 07:44:49;;;;;;;5.55;1.40;;;22.80;99.90;;;;;;5049799;28;20530;-43
2022/06/18 07:47:20;;;;;;;4.93;1.10;;;22.80;99.90;;;;;;5051388;28;20049;-47
2022/06/18 07:49:46;;;;;;;5.40;1.25;;;22.80;99.90;;;;;;5049920;28;20531;-44
2022/06/18 07:52:13;;;;;;;5.97;1.15;;;22.90;99.90;;;;;;5051017;28;20044;-46
2022/06/18 07:54:40;;;;;;;5.18;1.20;;;23.00;99.90;;;;;;5048649;28;20433;-46
2022/06/18 07:57:06;;;;;;;7.85;1.90;;;23.00;99.90;;;;;;5047634;28;20041;-45
2022/06/18 07:59:32;;;;;;;4.00;1.20;;;23.10;99.90;;;;;;5049095;28;20067;-45
2022/06/18 08:01:58;;;;;;;9.25;2.03;;;23.10;99.90;;;;;;5048653;28;20560;-48
2022/06/18 08:04:24;;;;;;;5.45;1.55;;;23.10;99.90;;;;;;5047303;28;20495;-45
2022/06/18 08:06:50;;;;;;;5.35;1.40;;;23.20;99.90;;;;;;5030982;28;20041;-45
2022/06/18 08:09:15;;;;;;;6.45;1.40;;;23.20;99.90;;;;;;5048783;28;20048;-45
2022/06/18 08:11:42;;;;;;;4.18;0.85;;;23.30;99.90;;;;;;5047511;28;20057;-46
2022/06/18 08:14:09;;;;;;;4.97;1.00;;;23.40;99.90;;;;;;5047103;28;20462;-49
2022/06/18 08:16:35;;;;;;;4.43;1.20;;;23.40;99.90;;;;;;5047437;28;20059;-45
2022/06/18 08:19:01;;;;;;;4.55;0.98;;;23.50;99.90;;;;;;5048493;28;20433;-45
2022/06/18 08:21:36;;;;;;;3.72;1.20;;;23.50;99.90;;;;;;5048609;28;20040;-46
2022/06/18 08:24:06;;;;;;;5.38;1.45;;;23.60;99.90;;;;;;5048485;28;20126;-45
2022/06/18 08:26:33;;;;;;;4.90;1.40;;;23.70;99.90;;;;;;5048887;28;20047;-45
2022/06/18 08:29:01;;;;;;;4.25;1.10;;;23.70;99.90;;;;;;5051553;28;20592;-46
2022/06/18 08:31:27;;;;;;;4.85;1.45;;;23.70;99.90;;;;;;5051007;28;20610;-47
2022/06/18 08:33:54;;;;;;;4.53;1.40;;;23.80;99.90;;;;;;5050989;28;20037;-45
2022/06/18 08:36:19;;;;;;;5.18;1.20;;;23.90;99.90;;;;;;5052453;28;20029;-46
2022/06/18 08:38:47;;;;;;;6.22;1.70;;;23.90;99.90;;;;;;5035062;28;20036;-46
2022/06/18 08:41:27;;;;;;;6.32;1.50;;;23.90;99.90;;;;;;5053215;28;20052;-46
2022/06/18 08:44:17;;;;;;;5.93;1.48;;;24.00;99.90;;;;;;5052970;28;20403;-49
2022/06/18 08:47:17;;;;;;;4.28;0.95;;;24.10;99.90;;;;;;5053256;28;20040;-47
2022/06/18 08:50:02;;;;;;;4.70;0.88;;;24.10;99.90;;;;;;5051789;28;20051;-46
2022/06/18 08:52:55;;;;;;;3.33;0.63;;;24.10;99.90;;;;;;5052849;28;20130;-45
2022/06/18 08:55:47;;;;;;;2.38;0.60;;;24.20;99.90;;;;;;5051676;28;20041;-45
2022/06/18 08:58:32;;;;;;;2.75;0.43;;;24.20;99.90;;;;;;5053367;28;20410;-46
2022/06/18 09:01:19;;;;;;;2.70;0.40;;;24.30;99.90;;;;;;5053156;28;20041;-45
2022/06/18 09:03:55;;;;;;;1.98;0.40;;;24.30;99.90;;;;;;5052848;28;20491;-48
2022/06/18 09:06:48;;;;;;;1.92;0.35;;;24.30;99.90;;;;;;5052650;28;20049;-45
2022/06/18 09:09:31;;;;;;;1.88;0.35;;;24.40;99.90;;;;;;5053578;28;20099;-45
2022/06/18 09:12:06;;;;;;;0.90;0.20;;;24.40;99.90;;;;;;5051381;28;20033;-45
2022/06/18 09:14:57;;;;;;;2.63;0.30;;;24.40;99.90;;;;;;5052386;28;20126;-46
2022/06/18 09:17:50;;;;;;;1.92;0.30;;;24.50;99.90;;;;;;5051472;28;20052;-45
2022/06/18 09:20:31;;;;;;;0.77;0.10;;;24.50;99.90;;;;;;5052428;28;20043;-47
2022/06/18 09:23:04;;;;;;;1.00;0.20;;;24.50;99.90;;;;;;5052278;28;20123;-48
2022/06/18 09:25:37;;;;;;;1.55;0.20;;;24.60;99.90;;;;;;5052301;28;20672;-46
2022/06/18 09:28:07;;;;;;;1.20;0.20;;;24.60;99.90;;;;;;5051786;28;20044;-47
2022/06/18 09:30:38;;;;;;;2.22;0.20;;;24.70;99.90;;;;;;5051530;28;20097;-47
2022/06/18 09:33:17;;;;;;;2.25;0.50;;;24.80;99.90;;;;;;5051541;28;20389;-46
2022/06/18 09:35:54;;;;;;;2.13;0.20;;;24.80;99.90;;;;;;5052823;28;20048;-47
2022/06/18 09:38:39;;;;;;;2.17;0.28;;;24.90;99.90;;;;;;5051451;28;20041;-46
2022/06/18 09:41:15;;;;;;;1.17;0.20;;;24.90;99.90;;;;;;5051591;28;20033;-47
2022/06/18 09:43:52;;;;;;;1.67;0.30;;;24.90;99.90;;;;;;5050699;28;20053;-48
2022/06/18 09:46:20;;;;;;;2.47;0.30;;;25.00;99.90;;;;;;5052519;28;20045;-46
2022/06/18 09:48:46;;;;;;;1.48;0.30;;;25.00;99.90;;;;;;5052205;28;20037;-44
2022/06/18 09:51:46;;;;;;;1.23;0.30;;;25.10;99.90;;;;;;5051748;28;20474;-45
2022/06/18 09:54:15;;;;;;;2.22;0.30;;;25.10;99.90;;;;;;5051295;28;20048;-44
2022/06/18 09:56:46;;;;;;;1.80;0.30;;;25.10;99.90;;;;;;5053157;28;20435;-44
2022/06/18 09:59:25;;;;;;;2.25;0.30;;;25.20;99.90;;;;;;5051407;28;20045;-47
2022/06/18 10:01:53;;;;;;;1.60;0.30;;;25.20;99.90;;;;;;5049464;28;20041;-47
2022/06/18 10:07:24;;;;;;;2.30;0.40;;;25.30;99.90;;;;;;5050610;28;20056;-47
2022/06/18 10:10:05;;;;;;;1.27;0.20;;;25.30;99.90;;;;;;5050343;28;20495;-49
2022/06/18 10:12:40;;;;;;;1.33;0.30;;;25.40;99.90;;;;;;5032891;28;20049;-46
2022/06/18 10:15:13;;;;;;;1.80;0.30;;;25.50;99.90;;;;;;5048173;28;20055;-47
2022/06/18 10:18:06;;;;;;;2.13;0.30;;;25.50;99.90;;;;;;5050334;28;20044;-47
2022/06/18 10:20:52;;;;;;;2.58;0.43;;;25.60;99.90;;;;;;5050271;28;20483;-46
2022/06/18 10:23:29;;;;;;;1.85;0.25;;;25.60;99.90;;;;;;5050416;28;20040;-49
2022/06/18 10:26:40;;;;;;;1.83;0.30;;;25.70;99.90;;;;;;5051356;28;20032;-46
2022/06/18 10:29:32;;;;;;;1.42;0.20;;;25.70;99.90;;;;;;5058825;28;20052;-45
2022/06/18 10:32:05;;;;;;;1.52;0.20;;;25.70;99.90;;;;;;5053231;28;20036;-48
2022/06/18 10:34:59;;;;;;;1.58;0.22;;;25.70;99.90;;;;;;5051529;28;20049;-45
2022/06/18 10:37:28;;;;;;;1.63;0.20;;;25.70;99.90;;;;;;5052645;28;20075;-44
2022/06/18 10:40:26;;;;;;;1.30;0.30;;;25.80;99.90;;;;;;5052579;28;20045;-48
2022/06/18 10:43:08;;;;;;;1.35;0.20;;;25.80;99.90;;;;;;5050795;28;20043;-48
2022/06/18 10:45:41;;;;;;;2.30;0.40;;;25.90;99.90;;;;;;5052081;28;20047;-44
2022/06/18 10:48:16;;;;;;;2.13;0.30;;;25.90;99.90;;;;;;5052376;28;20052;-47
2022/06/18 10:50:48;;;;;;;2.03;0.30;;;26.00;99.90;;;;;;5051962;28;20051;-46
2022/06/18 10:53:16;;;;;;;1.55;0.30;;;26.10;99.90;;;;;;5052286;28;20111;-44
2022/06/18 10:55:42;;;;;;;2.55;0.40;;;26.10;99.90;;;;;;5052239;28;20407;-44
2022/06/18 10:58:13;;;;;;;3.72;0.32;;;26.20;99.90;;;;;;5052266;28;20439;-44
2022/06/18 11:00:40;;;;;;;2.50;0.30;;;26.20;99.90;;;;;;5051053;28;20111;-46
2022/06/18 11:03:20;;;;;;;2.13;0.30;;;26.20;99.90;;;;;;5050916;28;20048;-44
2022/06/18 11:05:48;;;;;;;2.60;0.32;;;26.30;99.90;;;;;;5050911;28;20068;-45
2022/06/18 11:08:28;;;;;;;2.83;0.40;;;26.30;99.90;;;;;;5051373;28;20052;-45
2022/06/18 11:11:06;;;;;;;2.92;0.40;;;26.40;99.90;;;;;;5051747;28;20091;-46
2022/06/18 11:13:39;;;;;;;2.53;0.30;;;26.40;99.90;;;;;;5052278;28;20399;-45
2022/06/18 11:16:28;;;;;;;1.77;0.20;;;26.50;99.90;;;;;;5052424;28;20403;-45
2022/06/18 11:18:59;;;;;;;3.00;0.35;;;26.50;99.90;;;;;;5052120;28;20077;-45
2022/06/18 11:21:40;;;;;;;3.10;0.30;;;26.50;99.90;;;;;;5041978;28;20033;-45
2022/06/18 11:24:30;;;;;;;2.40;0.30;;;26.50;99.90;;;;;;5049746;28;20040;-45
2022/06/18 11:26:59;;;;;;;3.15;0.52;;;26.50;99.90;;;;;;5050234;28;20099;-45
2022/06/18 11:29:35;;;;;;;3.30;0.35;;;26.50;99.90;;;;;;5033483;28;20368;-44
2022/06/18 11:32:08;;;;;;;3.42;0.50;;;26.50;99.90;;;;;;5044147;28;20041;-44
2022/06/18 11:34:42;;;;;;;4.97;0.60;;;26.50;99.90;;;;;;5040005;28;20419;-45
2022/06/18 11:37:21;;;;;;;2.67;0.40;;;26.50;99.90;;;;;;5049986;28;20621;-46
2022/06/18 11:40:03;;;;;;;3.53;0.50;;;26.50;99.90;;;;;;5051292;28;20045;-45
2022/06/18 11:42:32;;;;;;;4.13;0.30;;;26.50;99.90;;;;;;5039825;28;20120;-45
2022/06/18 11:45:15;;;;;;;4.80;0.50;;;26.50;99.90;;;;;;5039353;28;20125;-45
2022/06/18 11:48:19;;;;;;;4.78;0.40;;;26.50;99.90;;;;;;5041176;28;20049;-44
2022/06/18 11:51:05;;;;;;;5.13;0.60;;;26.50;99.90;;;;;;5044271;28;20475;-47
2022/06/18 11:53:44;;;;;;;3.83;0.40;;;26.50;99.90;;;;;;5036592;28;20037;-44
2022/06/18 11:56:26;;;;;;;4.80;0.40;;;26.60;99.90;;;;;;5043926;28;20097;-45
2022/06/18 11:58:58;;;;;;;3.38;0.40;;;26.60;99.90;;;;;;5028813;28;20052;-44
2022/06/18 12:01:35;;;;;;;4.50;0.47;;;26.60;99.90;;;;;;5037255;28;20054;-44
2022/06/18 12:04:33;;;;;;;3.70;0.43;;;26.70;99.90;;;;;;5046026;28;20048;-47
2022/06/18 12:07:25;;;;;;;3.05;0.38;;;26.70;99.90;;;;;;5039687;28;20099;-48
2022/06/18 12:09:51;;;;;;;4.30;0.38;;;26.70;99.70;;;;;;5037154;28;20037;-45
2022/06/18 12:12:46;;;;;;;3.15;0.40;;;26.70;99.50;;;;;;5050239;28;20037;-45
2022/06/18 12:15:43;;;;;;;5.32;0.40;;;26.70;98.40;;;;;;5053008;28;20044;-49
2022/06/18 12:18:36;;;;;;;4.30;0.40;;;26.70;97.90;;;;;;5053716;28;20052;-47
2022/06/18 12:21:02;;;;;;;4.55;0.40;;;26.70;96.70;;;;;;5053409;28;20049;-47
2022/06/18 12:23:49;;;;;;;3.60;0.40;;;26.70;96.40;;;;;;5053585;28;20120;-46
2022/06/18 12:26:24;;;;;;;3.55;0.40;;;26.80;96.00;;;;;;5053842;28;20126;-46
2022/06/18 12:29:11;;;;;;;4.32;0.40;;;26.70;95.90;;;;;;5053380;28;20558;-47
2022/06/18 12:32:12;;;;;;;4.63;0.55;;;26.80;96.50;;;;;;5053789;28;20044;-47
2022/06/18 12:34:47;;;;;;;3.67;0.80;;;26.70;96.10;;;;;;5059335;28;20056;-47
2022/06/18 12:37:31;;;;;;;4.65;0.50;;;26.70;96.60;;;;;;5035659;28;20088;-46
2022/06/18 12:40:33;;;;;;;4.80;0.47;;;26.70;97.00;;;;;;5052000;28;20043;-46
2022/06/18 12:43:05;;;;;;;6.25;0.50;;;26.90;97.30;;;;;;5058327;28;20052;-45
2022/06/18 12:45:30;;;;;;;4.95;0.40;;;26.80;96.80;;;;;;5038620;28;20146;-47
2022/06/18 12:48:25;;;;;;;5.75;0.60;;;26.80;96.40;;;;;;5042803;28;20072;-45
2022/06/18 12:51:09;;;;;;;5.55;0.63;;;26.90;96.40;;;;;;5031298;28;20515;-47
2022/06/18 12:54:00;;;;;;;6.15;0.70;;;26.90;95.30;;;;;;5050493;28;20540;-46
2022/06/18 12:56:34;;;;;;;7.15;0.70;;;26.90;95.80;;;;;;5052922;28;20033;-45
2022/06/18 12:59:30;;;;;;;4.57;0.60;;;26.90;95.30;;;;;;5041772;28;20496;-48
2022/06/18 13:02:15;;;;;;;5.35;0.63;;;26.90;95.30;;;;;;5040898;28;20407;-47
2022/06/18 13:05:11;;;;;;;5.60;0.80;;;27.00;95.30;;;;;;5042628;28;20438;-45
2022/06/18 13:08:11;;;;;;;6.15;0.73;;;27.00;94.50;;;;;;5035365;28;20053;-47
2022/06/18 13:10:42;;;;;;;5.55;0.63;;;27.00;93.00;;;;;;5028198;28;20041;-48
2022/06/18 13:13:18;;;;;;;4.28;0.43;;;27.00;93.80;;;;;;5049539;28;20074;-47
2022/06/18 13:16:21;;;;;;;3.72;0.47;;;27.00;93.40;;;;;;5048521;28;20097;-47
2022/06/18 13:18:51;;;;;;;4.53;0.45;;;27.10;91.60;;;;;;5037585;28;20050;-45
2022/06/18 13:21:17;;;;;;;3.67;0.50;;;27.00;90.40;;;;;;5051126;28;20067;-47
2022/06/18 13:30:05;;;;;;;4.07;0.37;;;27.00;89.10;;;;;;5039205;28;20471;-46
2022/06/18 13:32:40;;;;;;;3.75;0.40;;;27.00;89.20;;;;;;5052087;28;20037;-49
2022/06/18 13:35:16;;;;;;;3.17;0.50;;;27.00;87.60;;;;;;5038169;28;20063;-46